New York Harbor Entrance NM SE of Breezy Point NY (44065)

Conditions for Monday

Daily
Weekly
Monthly
Marine Data Graph

Current Weather/Wave Observations

Air Temperature: 71° F
Humidity: 73
Wind direction (W Dir): NE (45 - 54 Degrees)
Wind Speed (W Spd): 5.8 kts (6.7 mph)
Wind Gust (W Spd): 7.8 kts (8.9 mph)
Atmospheric Pressure (AP): 30.07 in

Updated: 9:40 AM EDT on September 16, 2019

Marine & Boating Location Search

Enter a coastal zip code for marine weather.

General Information

Location: 40.369 North -73.703 West
Buoy Type: 3-meter discus buoy
Buoy Hull: 3D63
Payload: ARES payload
Owned by: NDBC
Windspeed: Measured by obtained from anemometer
Sea Surface: Measured by Intake
Note: Right whales are active off NY from November to April.  Speed restrictions of 10 knots apply to vessels 65 feet or greater within the vicinity of this station between November 1 and April 30.  To learn more about right whales and rules protecting them, go to: http://www.nmfs.noaa.gov/pr/shipstrike

Weather and Wave Data

Time Temp Humidity Wind Dominant Wave Wind Wave Wave Swell Pressure
  Air
(°F)
Water
(°F)
  Dir Speed
(kts)
Speed
(mph)
Period
(sec)
Height
(ft)
Range
(ft)
Period
(sec)
Height
(ft)
Range
(ft)
Period
(sec)
Height
(ft)
Range
(ft)
Atmo.
(in)
Tend.
(in)
20:10 71 72 88 SSW 9.7 11.2 - - - - - - 30.07 -
20:20 72 72 85 SSW 9.7 11.2 - - - - - - 30.07 -
20:30 72 72 87 SSW 9.7 11.2 - - - - - - 30.07 -
20:40 71 71 91 SSW 9.7 11.2 - - - - - - 30.07 -
20:50 71 71 92 SSW 9.7 11.2 8 2.95 exactly 3.0 4 1.64 0.82 - 2.46 8 3.28 2.46 - 4.10 30.07 -
21:10 71 71 93 SSW 9.7 11.2 - - - - - - 30.07 -
21:20 71 71 93 SSW 9.7 11.2 - - - - - - 30.06 -
21:30 71 71 95 SSW 9.7 11.2 - - - - - - 30.06 -
21:50 71 72 95 SSW 9.7 11.2 9 2.95 exactly 3.0 5 1.64 0.82 - 2.46 9 3.28 2.46 - 4.10 30.06 -
22:10 71 72 95 SSW 9.7 11.2 - - - - - - 30.07 -
22:40 71 72 96 SSW 9.7 11.2 - - - - - - 30.07 -
22:50 71 72 96 SSW 9.7 11.2 8 2.95 exactly 3.0 4 1.64 0.82 - 2.46 8 3.28 2.46 - 4.10 30.06 -
23:20 71 72 97 SSW 7.8 8.9 - - - - - - 30.06 -
23:40 71 72 97 SSW 7.8 8.9 - - - - - - 30.06 -
00:10 71 72 97 SW 7.8 8.9 - - - - - - 30.06 -
00:20 71 72 97 WSW 7.8 8.9 - - - - - - 30.06 -
00:30 71 72 97 WSW 7.8 8.9 - - - - - - 30.06 -
00:40 71 72 95 WSW 7.8 8.9 - - - - - - 30.06 -
00:50 71 72 95 WSW 7.8 8.9 8 2.95 exactly 3.0 - - - 8 3.28 2.46 - 4.10 30.06 -
01:10 71 72 93 SW 5.8 6.7 - - - - - - 30.06 -
01:30 71 72 92 SW 5.8 6.7 - - - - - - 30.06 -
01:40 71 72 92 SW 5.8 6.7 - - - - - - 30.06 -
01:50 71 72 91 WSW 7.8 8.9 10 2.62 exactly 2.6 - - - 10 3.28 2.46 - 4.10 30.06 -
02:00 71 72 89 WSW 5.8 6.7 - - - - - - 30.06 -
02:10 71 72 89 WSW 5.8 6.7 - - - - - - 30.06 -
02:20 71 71 87 SW 5.8 6.7 - - - - - - 30.05 -
02:30 71 72 84 SW 5.8 6.7 - - - - - - 30.05 -
02:40 72 72 75 WSW 7.8 8.9 - - - - - - 30.05 -
02:50 72 72 70 WSW 7.8 8.9 8 2.62 exactly 2.6 - - - 8 3.28 2.46 - 4.10 30.05 -
03:10 72 72 69 WSW 7.8 8.9 - - - - - - 30.05 -
03:20 72 72 71 WSW 7.8 8.9 - - - - - - 30.05 -
03:50 71 71 77 West 5.8 6.7 11 2.62 exactly 2.6 - - - 11 3.28 2.46 - 4.10 30.05 -
04:10 72 71 73 SW 5.8 6.7 - - - - - - 30.04 -
04:20 71 71 76 SSW 7.8 8.9 - - - - - - 30.04 -
04:50 71 71 78 West 7.8 8.9 11 2.62 exactly 2.6 4 1.64 0.82 - 2.46 11 3.28 2.46 - 4.10 30.05 -
05:30 71 71 77 West 7.8 8.9 - - - - - - 30.05 -
05:40 71 71 75 West 7.8 8.9 - - - - - - 30.05 -
05:50 71 71 74 West 5.8 6.7 11 2.95 exactly 3.0 - - - 11 3.28 2.46 - 4.10 30.05 -
06:30 71 71 74 NW 3.9 4.5 - - - - - - 30.05 -
06:40 71 71 73 NW 5.8 6.7 - - - - - - 30.05 -
06:50 71 71 76 WNW 5.8 6.7 11 2.95 exactly 3.0 - - - 11 3.28 2.46 - 4.10 30.06 -
07:00 71 71 78 WNW 5.8 6.7 - - - - - - 30.06 +0.01
07:10 71 71 78 NW 7.8 8.9 - - - - - - 30.06 -
07:30 71 71 80 NW 7.8 8.9 - - - - - - 30.06 -
08:00 71 71 76 NW 9.7 11.2 - - - - - - 30.06 +0.02
08:10 71 71 77 NW 7.8 8.9 - - - - - - 30.06 -
08:20 71 71 77 NW 7.8 8.9 - - - - - - 30.06 -
08:30 71 71 78 NW 7.8 8.9 - - - - - - 30.06 -
08:40 71 71 77 NW 7.8 8.9 - - - - - - 30.06 -
08:50 72 71 72 NW 7.8 8.9 11 2.95 exactly 3.0 - - - 11 3.28 2.46 - 4.10 30.07 -
09:00 72 71 72 NNW 5.8 6.7 - - - - - - 30.07 +0.01
09:20 72 71 72 North 5.8 6.7 - - - - - - 30.07 -
09:40 71 71 73 NE 5.8 6.7 - - - - - - 30.07 -

Detailed Wave Spectra

Time Water Depth Wave Height Spectral Peak Period Average Wave Period Sampling Interval Wave Record
21:00 82 ft 2.95 ft 8.3 sec 5.7 sec 0.6 sec 2400 sec
22:00 82 ft 2.82 ft 9.1 sec 5.9 sec 0.6 sec 2400 sec
00:00 82 ft 2.82 ft 7.7 sec 6.0 sec 0.6 sec 2400 sec
01:00 82 ft 2.89 ft 7.7 sec 6.2 sec 0.6 sec 2400 sec
03:00 82 ft 2.62 ft 8.3 sec 6.0 sec 0.6 sec 2400 sec
04:00 82 ft 2.56 ft 11.4 sec 6.1 sec 0.6 sec 2400 sec
05:00 82 ft 2.76 ft 10.8 sec 6.1 sec 0.6 sec 2400 sec
06:00 82 ft 2.82 ft 10.8 sec 6.6 sec 0.6 sec 2400 sec